Airfield :
LOGIN :

Register | Disclaimer

   EN    FR    IT 

 










Legend :    VFR   Marginal VFR   IFR   Intensive IFR   Very Intensive IFR
Visi :
Ceiling :
>= 8 km
>= 3000ft
5 to 8 km
1000 to 3000 ft
1500m to 5 km
500 to 1000 ft
800 to 1500m
200 to 500 ft
< 800m
< 200 ft
Symbols :   Thunderstorms  Fog  Heavy snow  Heavy precipitations  Wind > 20 kt
SIGMETs :     Misc.  Thunderstorms  Icing  Turbulence  Mountain Waves  Volcanic Ashes






- Airport Elevation : 194 ft
- IATA code : IEG


EPZG - Zielona Gora Babimost

CURRENT METAR :
  • 252000Z 18002KT 9999 SCT050TCU 12/11 Q1009

EXPIRED METARs :
  • 251930Z 23002KT 9999 SCT049TCU 12/11 Q1009
  • 251900Z 24002KT 9999 BKN049TCU 12/10 Q1009
  • 251830Z 00000KT CAVOK 13/11 Q1009
  • 251800Z VRB01KT CAVOK 14/11 Q1009
  • 251730Z VRB01KT CAVOK 14/11 Q1009

TAF AMD TAF EPZG
Valid from the 25 at 19:00 until the 26 at 03:00 UTC


251906Z 2519/2603 24002KT CAVOK
TEMPO 2519/2521 -SHRA BKN045CB
TEMPO 2521/2603 3000 BR



MET'MAP, your aeronautical weather chart ! - Copyright ORBIFLY December 2007 - Disclaimer

ORBIFLY MET'MAP TEAM :

Programming & Development : Alexandra Zaïnal
Original concept : Baudouin d'Aumeries
Technical & hardware support : Manuel Goepfert
Assistance : Marc-Olivier Méhu




SOURCES & CREDITS :

   NOAA